createdAt,value
2023-10-23T00:01:01.573Z,11.85
2023-10-23T00:03:29.764Z,11.91
2023-10-23T00:05:57.840Z,12.03
2023-10-23T00:08:25.710Z,12.19
2023-10-23T00:10:53.588Z,12.31
2023-10-23T00:13:21.435Z,12.35
2023-10-23T00:15:49.569Z,12.23
2023-10-23T00:18:19.018Z,12.14
2023-10-23T00:20:46.956Z,12.20
2023-10-23T00:23:14.896Z,12.14
2023-10-23T00:25:43.153Z,12.14
2023-10-23T00:28:11.140Z,12.15
2023-10-23T00:30:39.007Z,12.05
2023-10-23T00:33:07.533Z,12.08
2023-10-23T00:35:37.293Z,12.17
2023-10-23T00:38:05.250Z,12.18
2023-10-23T00:40:33.554Z,12.26
2023-10-23T00:43:13.384Z,12.25
2023-10-23T00:45:49.505Z,12.28
2023-10-23T00:48:18.029Z,12.32
2023-10-23T00:50:48.162Z,12.34
2023-10-23T00:53:16.746Z,12.33
2023-10-23T00:55:46.869Z,12.36
2023-10-23T00:58:17.063Z,12.38
2023-10-23T01:00:46.537Z,12.43
2023-10-23T01:03:14.643Z,12.42
2023-10-23T01:05:42.872Z,12.28
2023-10-23T01:08:12.828Z,12.18
2023-10-23T01:10:41.044Z,12.08
2023-10-23T01:13:09.444Z,12.06
2023-10-23T01:15:37.661Z,11.96
2023-10-23T01:18:06.500Z,11.97
2023-10-23T01:20:34.835Z,11.82
2023-10-23T01:23:04.428Z,11.83
2023-10-23T01:25:34.050Z,11.84
2023-10-23T01:28:01.939Z,11.62
2023-10-23T01:30:29.987Z,11.59
2023-10-23T01:32:58.244Z,11.67
2023-10-23T01:35:26.749Z,11.66
2023-10-23T01:37:54.772Z,11.64
2023-10-23T01:40:22.731Z,11.61
2023-10-23T01:42:52.061Z,11.65
2023-10-23T01:45:21.096Z,11.61
2023-10-23T01:47:49.169Z,11.48
2023-10-23T01:50:17.274Z,11.53
2023-10-23T01:52:46.176Z,11.38
2023-10-23T01:55:14.171Z,11.18
2023-10-23T01:57:42.171Z,11.17
2023-10-23T02:00:12.640Z,11.15
2023-10-23T02:02:42.549Z,11.06
2023-10-23T02:05:11.193Z,11.07
2023-10-23T02:07:39.241Z,11.06
2023-10-23T02:10:08.326Z,10.83
2023-10-23T02:12:36.278Z,11.00
2023-10-23T02:15:05.701Z,11.15
2023-10-23T02:17:35.977Z,11.17
2023-10-23T02:20:06.285Z,11.15
2023-10-23T02:22:34.557Z,10.98
2023-10-23T02:25:03.129Z,10.79
2023-10-23T02:27:31.695Z,10.65
2023-10-23T02:29:59.564Z,10.60
2023-10-23T02:32:27.519Z,10.48
2023-10-23T02:34:57.987Z,10.49
2023-10-23T02:37:26.228Z,10.65
2023-10-23T02:39:54.789Z,10.80
2023-10-23T02:42:23.152Z,10.89
2023-10-23T02:44:51.074Z,11.03
2023-10-23T02:47:19.034Z,11.02
2023-10-23T02:49:46.898Z,10.83
2023-10-23T02:52:16.706Z,10.73
2023-10-23T02:54:44.750Z,10.75
2023-10-23T02:57:12.730Z,11.01
2023-10-23T02:59:47.805Z,11.15
2023-10-23T03:02:16.141Z,11.32
2023-10-23T03:04:44.046Z,11.37
2023-10-23T03:07:13.224Z,11.28
2023-10-23T03:09:42.746Z,11.12
2023-10-23T03:12:10.902Z,11.04
2023-10-23T03:14:38.838Z,11.01
2023-10-23T03:17:06.726Z,11.18
2023-10-23T03:19:34.652Z,11.32
2023-10-23T03:22:02.566Z,11.44
2023-10-23T03:24:30.552Z,11.45
2023-10-23T03:27:00.744Z,11.48
2023-10-23T03:29:28.673Z,11.53
2023-10-23T03:31:57.012Z,11.54
2023-10-23T03:34:26.113Z,11.63
2023-10-23T03:36:54.132Z,11.63
2023-10-23T03:39:22.094Z,11.62
2023-10-23T03:41:50.041Z,11.63
2023-10-23T03:44:19.450Z,11.63
2023-10-23T03:46:47.500Z,11.57
2023-10-23T03:49:15.452Z,11.51
2023-10-23T03:51:43.443Z,11.52
2023-10-23T03:54:12.307Z,11.57
2023-10-23T03:56:40.197Z,11.61
2023-10-23T03:59:08.090Z,11.62
2023-10-23T04:01:37.346Z,11.61
2023-10-23T04:04:05.670Z,11.53
2023-10-23T04:06:33.599Z,11.46
2023-10-23T04:09:01.517Z,11.40
2023-10-23T04:11:29.404Z,11.41
2023-10-23T04:13:57.656Z,11.44
2023-10-23T04:16:25.685Z,11.41
2023-10-23T04:18:55.306Z,11.41
2023-10-23T04:21:25.109Z,11.45
2023-10-23T04:23:53.044Z,11.46
2023-10-23T04:26:20.972Z,11.43
2023-10-23T04:28:48.856Z,11.47
2023-10-23T04:31:16.997Z,11.52
2023-10-23T04:33:45.136Z,11.53
2023-10-23T04:36:14.396Z,11.44
2023-10-23T04:38:42.773Z,11.41
2023-10-23T04:41:10.739Z,11.37
2023-10-23T04:43:38.888Z,11.27
2023-10-23T04:46:06.822Z,11.16
2023-10-23T04:48:34.876Z,11.15
2023-10-23T04:51:03.506Z,11.07
2023-10-23T04:53:32.783Z,10.98
2023-10-23T04:56:01.381Z,11.11
2023-10-23T04:58:30.886Z,11.20
2023-10-23T05:00:59.043Z,11.18
2023-10-23T05:03:27.157Z,11.19
2023-10-23T05:05:55.146Z,11.23
2023-10-23T05:08:23.022Z,11.25
2023-10-23T05:10:52.316Z,11.37
2023-10-23T05:13:20.335Z,11.48
2023-10-23T05:15:48.296Z,11.61
2023-10-23T05:18:16.252Z,11.70
2023-10-23T05:20:44.181Z,11.73
2023-10-23T05:23:12.106Z,11.79
2023-10-23T05:25:40.029Z,11.85
2023-10-23T05:28:09.298Z,11.82
2023-10-23T05:30:37.169Z,11.86
2023-10-23T05:33:05.520Z,11.93
2023-10-23T05:35:33.459Z,11.92
2023-10-23T05:38:01.330Z,11.84
2023-10-23T05:40:29.134Z,11.78
2023-10-23T05:42:57.078Z,11.78
2023-10-23T05:45:26.345Z,11.54
2023-10-23T05:47:54.361Z,11.48
2023-10-23T05:50:22.227Z,11.51
2023-10-23T05:52:50.125Z,11.61
2023-10-23T05:55:18.134Z,11.66
2023-10-23T05:57:48.012Z,11.72
2023-10-23T06:00:16.824Z,11.85
2023-10-23T06:02:46.095Z,11.93
2023-10-23T06:05:14.074Z,11.79
2023-10-23T06:07:42.403Z,11.70
2023-10-23T06:10:10.865Z,11.66
2023-10-23T06:12:38.878Z,11.65
2023-10-23T06:15:07.411Z,11.80
2023-10-23T06:17:35.433Z,11.91
2023-10-23T06:20:05.153Z,12.00
2023-10-23T06:22:33.150Z,12.03
2023-10-23T06:25:01.190Z,12.01
2023-10-23T06:27:29.096Z,12.03
2023-10-23T06:29:56.981Z,12.06
2023-10-23T06:32:24.911Z,12.15
2023-10-23T06:34:52.981Z,12.16
2023-10-23T06:37:22.348Z,12.12
2023-10-23T06:39:50.327Z,12.10
2023-10-23T06:42:18.370Z,12.18
2023-10-23T06:44:46.356Z,12.30
2023-10-23T06:47:14.302Z,12.35
2023-10-23T06:49:45.356Z,12.40
2023-10-23T06:52:13.343Z,12.43
2023-10-23T06:54:42.634Z,12.47
2023-10-23T06:57:10.629Z,12.51
2023-10-23T06:59:38.628Z,12.47
2023-10-23T07:02:06.647Z,12.41
2023-10-23T07:04:35.285Z,12.44
2023-10-23T07:07:14.209Z,12.44
2023-10-23T07:09:54.490Z,12.46
2023-10-23T07:12:22.531Z,12.50
2023-10-23T07:14:50.598Z,12.53
2023-10-23T07:17:18.852Z,12.54
2023-10-23T07:19:46.754Z,12.45
2023-10-23T07:22:14.683Z,12.21
2023-10-23T07:24:42.611Z,11.97
2023-10-23T07:27:16.394Z,11.94
2023-10-23T07:29:44.884Z,11.81
2023-10-23T07:32:12.963Z,11.83
2023-10-23T07:34:40.872Z,11.80
2023-10-23T07:37:08.763Z,11.88
2023-10-23T07:39:36.653Z,11.95
2023-10-23T07:42:05.124Z,12.04
2023-10-23T07:44:34.415Z,12.14
2023-10-23T07:47:02.390Z,12.12
2023-10-23T07:49:30.843Z,12.20
2023-10-23T07:51:58.935Z,12.05
2023-10-23T07:54:26.957Z,12.17
2023-10-23T07:56:56.490Z,12.19
2023-10-23T07:59:25.167Z,12.31
2023-10-23T08:01:54.729Z,12.34
2023-10-23T08:04:23.195Z,12.34
2023-10-23T08:06:51.226Z,12.46
2023-10-23T08:09:19.428Z,12.59
2023-10-23T08:11:47.367Z,12.67
2023-10-23T08:14:15.334Z,12.69
2023-10-23T08:16:43.331Z,12.74
2023-10-23T08:19:13.916Z,12.73
2023-10-23T08:21:42.356Z,12.72
2023-10-23T08:24:10.774Z,12.71
2023-10-23T08:26:39.310Z,12.68
2023-10-23T08:29:07.178Z,12.63
2023-10-23T08:31:39.982Z,12.63
2023-10-23T08:34:09.826Z,12.69
2023-10-23T08:36:39.608Z,12.67
2023-10-23T08:39:07.710Z,12.73
2023-10-23T08:41:38.834Z,12.76
2023-10-23T08:44:09.025Z,12.82
2023-10-23T08:46:38.275Z,12.79
2023-10-23T08:49:06.404Z,12.80
2023-10-23T08:51:36.488Z,12.73
2023-10-23T08:54:11.441Z,12.79
2023-10-23T08:56:41.039Z,12.82
2023-10-23T08:59:11.372Z,12.83
2023-10-23T09:01:39.831Z,12.74
2023-10-23T09:04:11.781Z,12.72
2023-10-23T09:06:40.609Z,12.82
2023-10-23T09:09:10.307Z,12.90
2023-10-23T09:11:44.623Z,13.05
2023-10-23T09:14:14.048Z,13.15
2023-10-23T09:16:42.287Z,13.22
2023-10-23T09:19:10.317Z,13.29
2023-10-23T09:21:38.272Z,13.24
2023-10-23T09:24:07.571Z,13.22
2023-10-23T09:26:36.853Z,13.23
2023-10-23T09:29:04.851Z,13.20
2023-10-23T09:31:32.828Z,13.31
2023-10-23T09:34:03.935Z,13.41
2023-10-23T09:36:32.971Z,13.48
2023-10-23T09:39:02.143Z,13.49
2023-10-23T09:41:31.428Z,13.52
2023-10-23T09:44:01.921Z,13.59
2023-10-23T09:46:31.288Z,13.63
2023-10-23T09:49:03.907Z,13.69
2023-10-23T09:51:37.999Z,13.70
2023-10-23T09:54:15.595Z,13.74
2023-10-23T09:56:49.143Z,13.78
2023-10-23T09:59:20.152Z,13.82
2023-10-23T10:01:51.210Z,13.85
2023-10-23T10:04:25.759Z,13.80
2023-10-23T10:06:56.762Z,13.98
2023-10-23T10:09:26.883Z,14.04
2023-10-23T10:11:57.052Z,14.08
2023-10-23T10:14:27.338Z,14.14
2023-10-23T10:16:57.648Z,14.18
2023-10-23T10:19:27.867Z,14.20
2023-10-23T10:22:05.283Z,14.26
2023-10-23T10:24:34.437Z,14.30
2023-10-23T10:27:04.904Z,14.37
2023-10-23T10:29:34.853Z,14.41
2023-10-23T10:32:11.895Z,14.46
2023-10-23T10:34:56.601Z,14.50
2023-10-23T10:37:28.004Z,14.56
2023-10-23T10:40:07.409Z,14.53
2023-10-23T10:42:43.330Z,14.66
2023-10-23T10:45:20.857Z,14.70
2023-10-23T10:47:50.982Z,14.76
2023-10-23T10:50:35.209Z,14.81
2023-10-23T10:53:04.838Z,14.86
2023-10-23T10:55:33.539Z,14.92
2023-10-23T10:58:01.906Z,14.97
2023-10-23T11:00:36.691Z,15.02
2023-10-23T11:03:05.298Z,15.05
2023-10-23T11:05:34.091Z,15.09
2023-10-23T11:08:02.357Z,15.12
2023-10-23T11:10:30.403Z,15.13
2023-10-23T11:12:58.451Z,15.13
2023-10-23T11:15:27.076Z,15.14
2023-10-23T11:17:56.561Z,15.19
2023-10-23T11:20:29.482Z,15.25
2023-10-23T11:22:57.507Z,15.25
2023-10-23T11:25:25.669Z,15.32
2023-10-23T11:27:56.011Z,15.30
2023-10-23T11:30:27.007Z,15.30
2023-10-23T11:32:57.854Z,15.33
2023-10-23T11:35:34.353Z,15.37
2023-10-23T11:38:05.464Z,15.44
2023-10-23T11:40:38.081Z,15.52
2023-10-23T11:43:06.399Z,15.59
2023-10-23T11:45:34.386Z,15.66
2023-10-23T11:48:04.845Z,15.70
2023-10-23T11:50:34.372Z,15.75
2023-10-23T11:53:04.764Z,15.80
2023-10-23T11:55:33.197Z,15.83
2023-10-23T11:58:01.668Z,15.85
2023-10-23T12:00:29.694Z,15.86
2023-10-23T12:02:59.443Z,15.91
2023-10-23T12:05:29.065Z,15.97
2023-10-23T12:07:58.186Z,16.02
2023-10-23T12:10:28.173Z,16.10
2023-10-23T12:12:57.174Z,16.14
2023-10-23T12:15:25.678Z,16.17
2023-10-23T12:17:53.685Z,16.22
2023-10-23T12:20:23.601Z,16.27
2023-10-23T12:22:53.360Z,16.31
2023-10-23T12:25:21.868Z,16.35
2023-10-23T12:27:50.873Z,16.44
2023-10-23T12:30:23.843Z,16.57
2023-10-23T12:33:13.657Z,16.69
2023-10-23T12:35:45.198Z,16.79
2023-10-23T12:38:14.531Z,16.78
2023-10-23T12:40:44.290Z,16.71
2023-10-23T12:43:12.566Z,16.65
2023-10-23T12:45:40.612Z,16.61
2023-10-23T12:48:08.611Z,16.64
2023-10-23T12:50:37.148Z,16.81
2023-10-23T12:53:05.570Z,17.07
2023-10-23T12:55:34.976Z,17.35
2023-10-23T12:58:04.072Z,17.63
2023-10-23T13:00:32.277Z,17.83
2023-10-23T13:03:00.200Z,17.92
2023-10-23T13:05:28.510Z,17.97
2023-10-23T13:07:56.434Z,18.05
2023-10-23T13:10:24.473Z,18.14
2023-10-23T13:12:53.862Z,18.26
2023-10-23T13:15:21.968Z,18.42
2023-10-23T13:17:50.000Z,18.50
2023-10-23T13:21:30.767Z,18.58
2023-10-23T13:23:05.945Z,18.59
2023-10-23T13:25:36.019Z,18.57
2023-10-23T13:28:06.917Z,18.42
2023-10-23T13:30:34.995Z,18.51
2023-10-23T13:33:04.380Z,18.64
2023-10-23T13:35:34.072Z,18.78
2023-10-23T13:38:02.072Z,18.96
2023-10-23T13:40:30.315Z,19.06
2023-10-23T13:42:58.818Z,19.10
2023-10-23T13:45:28.208Z,19.16
2023-10-23T13:47:58.246Z,19.24
2023-10-23T13:50:26.733Z,19.30
2023-10-23T13:52:55.038Z,19.33
2023-10-23T13:55:22.957Z,19.35
2023-10-23T13:57:50.928Z,19.42
2023-10-23T14:00:20.192Z,19.47
2023-10-23T14:02:49.872Z,19.53
2023-10-23T14:05:18.253Z,19.57
2023-10-23T14:07:47.136Z,19.59
2023-10-23T14:10:21.575Z,19.59
2023-10-23T14:12:52.579Z,19.66
2023-10-23T14:15:21.178Z,19.76
2023-10-23T14:17:50.760Z,19.83
2023-10-23T14:20:19.038Z,19.90
2023-10-23T14:22:47.512Z,19.98
2023-10-23T14:25:15.738Z,20.01
2023-10-23T14:27:44.302Z,19.89
2023-10-23T14:30:13.829Z,19.73
2023-10-23T14:32:43.480Z,19.60
2023-10-23T14:35:13.422Z,19.47
2023-10-23T14:37:41.553Z,19.26
2023-10-23T14:40:11.459Z,19.19
2023-10-23T14:42:40.125Z,19.02
2023-10-23T14:45:09.130Z,18.85
2023-10-23T14:47:38.544Z,18.67
2023-10-23T14:50:08.351Z,18.50
2023-10-23T14:52:37.748Z,18.27
2023-10-23T14:55:07.095Z,18.06
2023-10-23T14:57:35.264Z,18.01
2023-10-23T15:00:05.103Z,17.86
2023-10-23T15:02:34.074Z,17.73
2023-10-23T15:05:02.338Z,17.63
2023-10-23T15:07:30.437Z,17.53
2023-10-23T15:09:59.857Z,17.44
2023-10-23T15:12:28.257Z,17.31
2023-10-23T15:14:57.431Z,17.22
2023-10-23T15:17:25.525Z,17.15
2023-10-23T15:19:56.746Z,17.10
2023-10-23T15:22:24.790Z,17.09
2023-10-23T15:24:52.950Z,17.11
2023-10-23T15:27:22.573Z,17.09
2023-10-23T15:29:50.571Z,17.06
2023-10-23T15:32:18.539Z,17.01
2023-10-23T15:34:47.630Z,16.92
2023-10-23T15:37:15.633Z,16.84
2023-10-23T15:39:45.153Z,16.77
2023-10-23T15:42:13.030Z,16.69
2023-10-23T15:44:43.266Z,16.63
2023-10-23T15:47:11.441Z,16.57
2023-10-23T15:49:39.983Z,16.53
2023-10-23T15:52:08.233Z,16.48
2023-10-23T15:54:36.304Z,16.41
2023-10-23T15:57:04.816Z,16.33
2023-10-23T15:59:33.195Z,16.25
2023-10-23T16:02:02.694Z,16.19
2023-10-23T16:04:31.360Z,16.16
2023-10-23T16:06:59.697Z,16.12
2023-10-23T16:09:28.606Z,16.08
2023-10-23T16:11:57.064Z,16.04
2023-10-23T16:14:53.675Z,15.98
2023-10-23T16:17:26.374Z,15.91
2023-10-23T16:19:54.528Z,15.87
2023-10-23T16:22:23.972Z,15.83
2023-10-23T16:24:52.002Z,15.82
2023-10-23T16:27:19.892Z,15.86
2023-10-23T16:29:50.221Z,15.84
2023-10-23T16:32:18.719Z,15.79
2023-10-23T16:34:50.295Z,15.84
2023-10-23T16:37:18.773Z,15.85
2023-10-23T16:39:47.102Z,15.87
2023-10-23T16:42:15.440Z,15.85
2023-10-23T16:44:55.456Z,15.83
2023-10-23T16:47:24.772Z,15.78
2023-10-23T16:49:54.550Z,15.76
2023-10-23T16:52:22.524Z,15.74
2023-10-23T16:54:50.920Z,15.71
2023-10-23T16:57:18.981Z,15.70
2023-10-23T16:59:48.572Z,15.69
2023-10-23T17:02:16.910Z,15.67
2023-10-23T17:04:45.926Z,15.66
2023-10-23T17:07:18.051Z,15.63
2023-10-23T17:09:46.712Z,15.59
2023-10-23T17:12:14.955Z,15.56
2023-10-23T17:14:43.376Z,15.55
2023-10-23T17:17:12.243Z,15.52
2023-10-23T17:19:41.760Z,15.52
2023-10-23T17:22:10.438Z,15.49
2023-10-23T17:24:39.791Z,15.50
2023-10-23T17:27:09.903Z,15.52
2023-10-23T17:29:38.100Z,15.54
2023-10-23T17:32:09.680Z,15.53
2023-10-23T17:34:38.920Z,15.52
2023-10-23T17:37:07.327Z,15.47
2023-10-23T17:39:35.539Z,15.43
2023-10-23T17:42:20.470Z,15.36
2023-10-23T17:44:48.818Z,15.34
2023-10-23T17:47:17.320Z,15.32
2023-10-23T17:49:45.732Z,15.34
2023-10-23T17:52:14.020Z,15.31
2023-10-23T17:54:45.682Z,15.28
2023-10-23T17:57:16.917Z,15.24
2023-10-23T17:59:44.892Z,15.20
2023-10-23T18:02:12.914Z,15.19
2023-10-23T18:04:41.308Z,15.15
2023-10-23T18:07:09.547Z,15.12
2023-10-23T18:09:38.000Z,15.08
2023-10-23T18:12:06.350Z,15.04
2023-10-23T18:14:36.084Z,15.03
2023-10-23T18:17:04.604Z,15.00
2023-10-23T18:19:32.662Z,14.98
2023-10-23T18:22:00.861Z,14.95
2023-10-23T18:24:28.922Z,14.92
2023-10-23T18:26:59.181Z,14.84
2023-10-23T18:29:27.069Z,14.81
2023-10-23T18:31:57.254Z,14.79
2023-10-23T18:34:25.249Z,14.80
2023-10-23T18:36:53.206Z,14.77
2023-10-23T18:39:21.809Z,14.70
2023-10-23T18:41:50.971Z,14.67
2023-10-23T18:44:19.024Z,14.71
2023-10-23T18:46:47.391Z,14.76
2023-10-23T18:49:17.106Z,14.73
2023-10-23T18:51:45.045Z,14.80
2023-10-23T18:54:15.656Z,14.82
2023-10-23T18:56:43.632Z,14.82
2023-10-23T18:59:12.486Z,14.80
2023-10-23T19:01:40.517Z,14.70
2023-10-23T19:04:08.520Z,14.58
2023-10-23T19:06:39.707Z,14.56
2023-10-23T19:09:08.846Z,14.57
2023-10-23T19:11:36.769Z,14.58
2023-10-23T19:14:04.751Z,14.57
2023-10-23T19:16:32.788Z,14.56
2023-10-23T19:19:00.757Z,14.55
2023-10-23T19:21:28.825Z,14.57
2023-10-23T19:23:58.065Z,14.53
2023-10-23T19:26:25.972Z,14.45
2023-10-23T19:28:53.896Z,14.40
2023-10-23T19:31:24.350Z,14.33
2023-10-23T19:33:53.110Z,14.33
2023-10-23T19:36:21.762Z,14.38
2023-10-23T19:38:49.427Z,14.39
2023-10-23T19:41:24.612Z,14.38
2023-10-23T19:43:53.035Z,14.34
2023-10-23T19:46:21.833Z,14.35
2023-10-23T19:48:50.735Z,14.38
2023-10-23T19:51:19.448Z,14.44
2023-10-23T19:53:51.731Z,14.48
2023-10-23T19:56:30.315Z,14.46
2023-10-23T19:59:01.355Z,14.40
2023-10-23T20:01:29.807Z,14.35
2023-10-23T20:03:57.997Z,14.32
2023-10-23T20:06:26.436Z,14.35
2023-10-23T20:08:54.661Z,14.45
2023-10-23T20:11:24.026Z,14.54
2023-10-23T20:13:52.009Z,14.58
2023-10-23T20:16:20.005Z,14.51
2023-10-23T20:18:48.048Z,14.47
2023-10-23T20:21:16.364Z,14.44
2023-10-23T20:23:44.266Z,14.48
2023-10-23T20:26:15.474Z,14.49
2023-10-23T20:28:45.625Z,14.44
2023-10-23T20:31:15.038Z,14.41
2023-10-23T20:33:43.679Z,14.43
2023-10-23T20:36:11.937Z,14.41
2023-10-23T20:38:40.134Z,14.34
2023-10-23T20:41:08.510Z,14.43
2023-10-23T20:43:36.458Z,14.45
2023-10-23T20:46:08.559Z,14.43
2023-10-23T20:48:37.108Z,14.41
2023-10-23T20:51:06.784Z,14.37
2023-10-23T20:53:34.793Z,14.29
2023-10-23T20:56:03.739Z,14.11
2023-10-23T20:58:31.944Z,14.22
2023-10-23T21:01:07.047Z,14.17
2023-10-23T21:03:36.647Z,14.17
2023-10-23T21:06:06.530Z,14.13
2023-10-23T21:08:37.683Z,14.15
2023-10-23T21:11:06.346Z,14.17
2023-10-23T21:13:34.632Z,14.15
2023-10-23T21:16:02.975Z,14.07
2023-10-23T21:18:32.528Z,14.04
2023-10-23T21:21:01.173Z,13.98
2023-10-23T21:23:29.728Z,13.91
2023-10-23T21:25:57.678Z,13.90
2023-10-23T21:28:27.031Z,13.95
2023-10-23T21:30:55.290Z,13.95
2023-10-23T21:33:23.394Z,13.95
2023-10-23T21:35:53.473Z,13.89
2023-10-23T21:38:21.535Z,13.89
2023-10-23T21:40:50.041Z,13.86
2023-10-23T21:43:19.925Z,13.85
2023-10-23T21:45:53.460Z,13.85
2023-10-23T21:48:26.780Z,13.83
2023-10-23T21:50:56.075Z,13.81
2023-10-23T21:53:24.490Z,13.82
2023-10-23T21:55:52.816Z,13.77
2023-10-23T21:58:21.395Z,13.74
2023-10-23T22:00:50.060Z,13.73
2023-10-23T22:03:18.993Z,13.68
2023-10-23T22:05:48.570Z,13.66
2023-10-23T22:08:18.474Z,13.65
2023-10-23T22:10:46.966Z,13.65
2023-10-23T22:13:15.304Z,13.66
2023-10-23T22:15:43.388Z,13.64
2023-10-23T22:18:11.630Z,13.53
2023-10-23T22:20:39.580Z,13.52
2023-10-23T22:23:07.443Z,13.51
2023-10-23T22:25:36.863Z,13.49
2023-10-23T22:28:05.330Z,13.48
2023-10-23T22:30:33.611Z,13.48
2023-10-23T22:33:14.670Z,13.46
2023-10-23T22:35:42.983Z,13.47
2023-10-23T22:38:13.886Z,13.50
2023-10-23T22:40:44.985Z,13.51
2023-10-23T22:43:13.804Z,13.49
2023-10-23T22:45:51.409Z,13.57
2023-10-23T22:48:27.509Z,13.60
2023-10-23T22:50:56.327Z,13.63
2023-10-23T22:53:25.289Z,13.68
2023-10-23T22:55:56.579Z,13.66
2023-10-23T22:58:30.011Z,13.71
2023-10-23T23:00:58.429Z,13.74
2023-10-23T23:03:26.969Z,13.78
2023-10-23T23:06:02.585Z,13.78
2023-10-23T23:08:32.002Z,13.69
2023-10-23T23:11:01.934Z,13.80
2023-10-23T23:13:30.656Z,13.78
2023-10-23T23:16:03.903Z,13.83
2023-10-23T23:18:32.655Z,13.90
2023-10-23T23:21:04.588Z,13.90
2023-10-23T23:23:32.424Z,13.91
2023-10-23T23:26:01.666Z,13.86
2023-10-23T23:28:29.619Z,13.83
2023-10-23T23:30:57.553Z,13.82
2023-10-23T23:33:25.492Z,13.81
2023-10-23T23:35:56.455Z,13.71
2023-10-23T23:38:24.473Z,13.52
2023-10-23T23:40:53.262Z,13.34
2023-10-23T23:43:22.511Z,13.24
2023-10-23T23:45:51.065Z,13.17
2023-10-23T23:48:18.939Z,13.17
2023-10-23T23:50:46.812Z,13.20
2023-10-23T23:53:14.816Z,13.20
2023-10-23T23:55:42.885Z,13.12
2023-10-23T23:58:11.065Z,13.20
